Time;durP1;ratioP1;P1;durP2;ratioP2;P2;SDS_P1;SDS_P2;PMS_P1;PMS_P2;Temp;Humidity;BMP_temperature;BMP_pressure;BME280_temperature;BME280_humidity;BME280_pressure;Samples;Min_cycle;Max_cycle;Signal;HPM_P1;HPM_P2
2023/12/14 00:00:15;;;;;;;91.30;61.00;;;;;;;3.91;100.00;97579.04;109593;1251;59171;-73
2023/12/14 00:03:02;;;;;;;92.40;62.20;;;;;;;3.91;100.00;97581.30;109524;1251;67616;-74
2023/12/14 00:05:28;;;;;;;93.10;62.00;;;;;;;3.91;100.00;97581.64;109533;1251;60703;-74
2023/12/14 00:07:55;;;;;;;101.80;67.30;;;;;;;3.92;100.00;97584.41;109573;1251;65272;-73
2023/12/14 00:10:21;;;;;;;96.30;63.20;;;;;;;3.92;100.00;97585.63;109542;1251;59028;-74
2023/12/14 00:12:50;;;;;;;91.00;58.90;;;;;;;3.90;100.00;97586.97;109572;1251;59104;-73
2023/12/14 00:15:17;;;;;;;90.60;56.90;;;;;;;3.88;100.00;97591.52;109605;1250;67273;-73
2023/12/14 00:17:44;;;;;;;84.80;53.50;;;;;;;3.86;100.00;97595.65;109594;1250;59060;-73
2023/12/14 00:20:11;;;;;;;81.70;52.80;;;;;;;3.86;100.00;97600.23;109572;1251;64081;-73
2023/12/14 00:22:38;;;;;;;85.50;51.60;;;;;;;3.87;100.00;97607.56;109582;1251;59020;-73
2023/12/14 00:25:05;;;;;;;84.80;51.70;;;;;;;3.88;100.00;97606.29;109572;1251;59006;-72
2023/12/14 00:27:31;;;;;;;91.70;54.80;;;;;;;3.88;100.00;97609.77;109587;1251;65954;-73
2023/12/14 00:29:58;;;;;;;92.60;54.50;;;;;;;3.89;100.00;97610.39;109607;1251;61188;-74
2023/12/14 00:32:25;;;;;;;95.60;58.30;;;;;;;3.91;100.00;97615.23;109553;1251;64827;-73
2023/12/14 00:34:51;;;;;;;93.40;56.50;;;;;;;3.92;100.00;97622.73;109264;1251;59128;-73
2023/12/14 00:37:18;;;;;;;91.30;54.10;;;;;;;3.93;100.00;97630.23;109580;1251;59216;-73
2023/12/14 00:39:44;;;;;;;88.10;55.60;;;;;;;3.94;100.00;97631.00;109604;1251;67036;-73
2023/12/14 00:42:11;;;;;;;93.60;57.30;;;;;;;3.97;100.00;97633.31;109519;1250;61121;-73
2023/12/14 00:44:38;;;;;;;95.70;54.30;;;;;;;4.00;100.00;97632.63;109592;1251;65026;-73
2023/12/14 00:47:04;;;;;;;96.50;54.50;;;;;;;4.02;100.00;97635.80;109560;1251;59007;-73
2023/12/14 00:49:31;;;;;;;96.00;57.00;;;;;;;4.05;100.00;97635.80;109337;1251;59524;-72
2023/12/14 00:51:58;;;;;;;96.40;57.50;;;;;;;4.06;100.00;97636.44;109568;1251;67044;-73
2023/12/14 00:54:25;;;;;;;93.40;58.30;;;;;;;4.06;100.00;97639.26;109553;1251;61072;-73
2023/12/14 00:56:51;;;;;;;96.20;54.40;;;;;;;4.07;100.00;97643.08;109504;1251;65129;-73
2023/12/14 00:59:18;;;;;;;98.10;55.20;;;;;;;4.07;100.00;97643.95;109540;1251;59017;-73
2023/12/14 01:01:44;;;;;;;93.00;52.60;;;;;;;4.07;100.00;97645.69;109288;1251;59228;-74
2023/12/14 01:04:11;;;;;;;89.80;54.70;;;;;;;4.08;100.00;97645.64;109588;1250;66917;-74
2023/12/14 01:06:38;;;;;;;88.00;53.90;;;;;;;4.06;100.00;97647.87;109560;1251;61015;-74
2023/12/14 01:09:04;;;;;;;95.70;60.70;;;;;;;4.04;100.00;97649.39;109551;1251;65294;-73
2023/12/14 01:11:31;;;;;;;92.60;59.30;;;;;;;4.02;100.00;97648.98;109566;1251;59045;-73
2023/12/14 01:13:57;;;;;;;95.10;60.70;;;;;;;4.01;100.00;97652.59;108827;1251;1002311;-74
2023/12/14 01:16:26;;;;;;;95.30;58.20;;;;;;;4.00;100.00;97652.30;109565;1250;66055;-73
2023/12/14 01:18:53;;;;;;;98.70;63.20;;;;;;;3.99;100.00;97652.33;109633;1251;60211;-73
2023/12/14 01:21:20;;;;;;;104.00;68.30;;;;;;;3.98;100.00;97651.87;109519;1251;64035;-73
2023/12/14 01:23:46;;;;;;;124.10;81.30;;;;;;;3.96;100.00;97650.04;109582;1251;59000;-73
2023/12/14 01:26:13;;;;;;;120.10;75.00;;;;;;;3.95;100.00;97649.59;109555;1251;59028;-73
2023/12/14 01:28:39;;;;;;;124.70;77.40;;;;;;;3.94;100.00;97655.06;109591;1250;66958;-73
2023/12/14 01:31:06;;;;;;;109.40;67.10;;;;;;;3.93;100.00;97654.11;109582;1251;61069;-73
2023/12/14 01:33:32;;;;;;;107.40;66.30;;;;;;;3.91;100.00;97654.57;109554;1251;65128;-73
2023/12/14 01:35:59;;;;;;;111.10;68.80;;;;;;;3.91;100.00;97656.53;109545;1251;59023;-73
2023/12/14 01:38:25;;;;;;;107.10;66.50;;;;;;;3.89;100.00;97657.32;109543;1251;58968;-73
2023/12/14 01:40:52;;;;;;;97.00;61.80;;;;;;;3.87;100.00;97655.69;109577;1251;66906;-72
2023/12/14 01:43:19;;;;;;;97.20;62.70;;;;;;;3.87;100.00;97656.77;109577;1250;59896;-73
2023/12/14 01:45:46;;;;;;;103.90;61.40;;;;;;;3.84;100.00;97656.03;109531;1251;65085;-74
2023/12/14 01:48:12;;;;;;;99.90;63.80;;;;;;;3.84;100.00;97651.86;109551;1251;59040;-74
2023/12/14 01:50:39;;;;;;;107.10;63.40;;;;;;;3.83;100.00;97652.41;109340;1251;59064;-74
2023/12/14 01:53:05;;;;;;;108.80;67.40;;;;;;;3.82;100.00;97650.42;109522;1251;66709;-74
2023/12/14 01:55:32;;;;;;;119.90;68.90;;;;;;;3.80;100.00;97648.95;109588;1251;61021;-74
2023/12/14 01:57:59;;;;;;;121.80;68.70;;;;;;;3.79;100.00;97654.29;109530;1251;65051;-73
2023/12/14 02:00:41;;;;;;;124.00;69.40;;;;;;;3.77;100.00;97653.70;109368;1257;58898;-73
2023/12/14 02:03:08;;;;;;;132.70;74.00;;;;;;;3.75;100.00;97653.81;109562;1251;59053;-74
2023/12/14 02:05:34;;;;;;;117.90;69.90;;;;;;;3.74;100.00;97655.12;109595;1251;66989;-73
2023/12/14 02:08:01;;;;;;;113.70;63.60;;;;;;;3.72;100.00;97660.45;109595;1251;61290;-73
2023/12/14 02:10:28;;;;;;;103.10;59.70;;;;;;;3.71;100.00;97661.23;109557;1251;63969;-74
2023/12/14 02:12:54;;;;;;;95.20;55.50;;;;;;;3.69;100.00;97663.80;109529;1251;58961;-73
2023/12/14 02:15:21;;;;;;;85.00;49.70;;;;;;;3.69;100.00;97664.56;109308;1254;59371;-73
2023/12/14 02:17:47;;;;;;;80.80;49.70;;;;;;;3.68;100.00;97665.63;109567;1251;65981;-74
2023/12/14 02:20:14;;;;;;;74.40;47.00;;;;;;;3.67;100.00;97665.90;109566;1250;60078;-73
2023/12/14 02:22:56;;;;;;;76.10;46.70;;;;;;;3.65;100.00;97665.66;109559;1251;65010;-73
2023/12/14 02:25:23;;;;;;;71.00;44.70;;;;;;;3.63;100.00;97665.91;109530;1251;59245;-73
2023/12/14 02:27:51;;;;;;;74.80;48.10;;;;;;;3.62;100.00;97667.81;109578;1251;59088;-74
2023/12/14 02:30:18;;;;;;;72.50;45.40;;;;;;;3.61;100.00;97673.83;109574;1251;66877;-73
2023/12/14 02:32:45;;;;;;;70.20;44.00;;;;;;;3.59;100.00;97674.82;109562;1251;60024;-73
2023/12/14 02:35:12;;;;;;;73.00;43.50;;;;;;;3.58;100.00;97678.55;109562;1251;64172;-73
2023/12/14 02:37:41;;;;;;;72.30;45.20;;;;;;;3.57;100.00;97679.64;109504;1251;58975;-73
2023/12/14 02:40:09;;;;;;;70.80;44.10;;;;;;;3.57;100.00;97682.98;109573;1251;60600;-73
2023/12/14 02:42:36;;;;;;;71.90;44.60;;;;;;;3.57;100.00;97683.19;109552;1251;66961;-73
2023/12/14 02:45:04;;;;;;;68.20;42.20;;;;;;;3.58;100.00;97684.01;109430;1251;60341;-73
2023/12/14 02:47:31;;;;;;;71.50;43.70;;;;;;;3.59;100.00;97688.19;109315;1251;63955;-73
2023/12/14 02:49:57;;;;;;;74.80;44.40;;;;;;;3.59;100.00;97687.77;109561;1251;58930;-73
2023/12/14 02:52:24;;;;;;;67.40;42.00;;;;;;;3.61;100.00;97689.83;109569;1251;59803;-73
2023/12/14 02:54:51;;;;;;;71.90;46.20;;;;;;;3.63;100.00;97690.92;109560;1251;67057;-73
2023/12/14 02:57:17;;;;;;;69.80;43.50;;;;;;;3.65;100.00;97694.80;109599;1251;61409;-73
2023/12/14 02:59:44;;;;;;;67.40;44.80;;;;;;;3.67;100.00;97693.81;109559;1251;65091;-73
2023/12/14 03:02:11;;;;;;;71.50;43.90;;;;;;;3.68;100.00;97690.23;109526;1251;58977;-73
2023/12/14 03:04:39;;;;;;;64.30;41.70;;;;;;;3.69;100.00;97689.33;109275;1251;59060;-73
2023/12/14 03:07:06;;;;;;;64.30;41.70;;;;;;;3.70;100.00;97695.55;109524;1251;67290;-73
2023/12/14 03:09:34;;;;;;;74.60;45.00;;;;;;;3.71;100.00;97697.79;109563;1252;61223;-73
2023/12/14 03:12:01;;;;;;;69.20;44.40;;;;;;;3.73;100.00;97701.71;109626;1251;64011;-73
2023/12/14 03:14:32;;;;;;;74.10;46.40;;;;;;;3.73;100.00;97703.61;109558;1251;58950;-73
2023/12/14 03:16:59;;;;;;;66.60;43.30;;;;;;;3.74;100.00;97705.17;109594;1251;59131;-73
2023/12/14 03:19:26;;;;;;;69.20;43.70;;;;;;;3.72;100.00;97705.13;109620;1250;66997;-73
2023/12/14 03:21:53;;;;;;;66.80;44.20;;;;;;;3.69;100.00;97710.91;109568;1255;61319;-73
2023/12/14 03:24:20;;;;;;;68.00;43.80;;;;;;;3.68;100.00;97712.73;109508;1251;64014;-73
2023/12/14 03:26:47;;;;;;;70.10;45.60;;;;;;;3.67;100.00;97718.19;109480;1251;59245;-73
2023/12/14 03:29:13;;;;;;;68.40;44.70;;;;;;;3.67;100.00;97714.55;109539;1251;59037;-73
2023/12/14 03:31:40;;;;;;;70.80;44.80;;;;;;;3.67;100.00;97721.24;109569;1251;67185;-73
2023/12/14 03:34:07;;;;;;;65.60;45.30;;;;;;;3.67;100.00;97724.56;109565;1251;60011;-73
2023/12/14 03:36:33;;;;;;;71.80;45.30;;;;;;;3.67;100.00;97731.91;109574;1251;65096;-73
2023/12/14 03:39:00;;;;;;;67.70;45.60;;;;;;;3.66;100.00;97736.70;109563;1251;59236;-73
2023/12/14 03:41:27;;;;;;;69.40;46.50;;;;;;;3.65;100.00;97739.77;109338;1251;59051;-73
2023/12/14 03:43:54;;;;;;;71.30;48.90;;;;;;;3.65;100.00;97744.85;109573;1251;67037;-72
2023/12/14 03:46:20;;;;;;;72.40;47.20;;;;;;;3.65;100.00;97749.98;109582;1251;60269;-73
2023/12/14 03:48:47;;;;;;;72.60;49.50;;;;;;;3.65;100.00;97753.81;109551;1251;65050;-73
2023/12/14 03:51:13;;;;;;;69.40;45.80;;;;;;;3.67;100.00;97759.67;109588;1251;58938;-74
2023/12/14 03:53:40;;;;;;;70.70;46.20;;;;;;;3.69;100.00;97770.79;109591;1251;59004;-73
2023/12/14 03:56:08;;;;;;;70.30;45.40;;;;;;;3.70;100.00;97773.00;109395;1251;221779;-74
2023/12/14 03:58:34;;;;;;;72.10;48.00;;;;;;;3.71;100.00;97774.89;109550;1251;60059;-74
2023/12/14 04:01:01;;;;;;;75.50;48.10;;;;;;;3.70;100.00;97776.15;109602;1251;65212;-74
2023/12/14 04:03:28;;;;;;;76.30;51.70;;;;;;;3.69;100.00;97780.27;109565;1251;59171;-74
2023/12/14 04:05:55;;;;;;;80.40;56.00;;;;;;;3.68;100.00;97783.50;109578;1251;59321;-74
2023/12/14 04:08:21;;;;;;;88.60;59.10;;;;;;;3.67;100.00;97788.98;109621;1251;67228;-73
2023/12/14 04:10:48;;;;;;;87.60;56.20;;;;;;;3.66;100.00;97792.58;109581;1252;59997;-74
2023/12/14 04:13:15;;;;;;;93.60;59.40;;;;;;;3.66;100.00;97797.86;109560;1251;64111;-74
2023/12/14 04:15:42;;;;;;;89.50;61.40;;;;;;;3.66;100.00;97805.92;109379;1251;59012;-74
2023/12/14 04:18:08;;;;;;;94.70;61.40;;;;;;;3.67;100.00;97806.38;109547;1251;59060;-73
2023/12/14 04:20:35;;;;;;;95.10;61.70;;;;;;;3.68;100.00;97808.25;109543;1251;66020;-73
2023/12/14 04:23:01;;;;;;;93.40;62.20;;;;;;;3.69;100.00;97809.98;109584;1251;61271;-73
2023/12/14 04:25:28;;;;;;;86.90;57.60;;;;;;;3.70;100.00;97814.64;109530;1251;65712;-73
2023/12/14 04:27:54;;;;;;;83.30;55.90;;;;;;;3.70;100.00;97817.27;109524;1251;59010;-73
2023/12/14 04:30:21;;;;;;;79.90;55.60;;;;;;;3.71;100.00;97819.67;109581;1251;59010;-73
2023/12/14 04:32:48;;;;;;;79.20;55.50;;;;;;;3.73;100.00;97823.25;109573;1251;67276;-73
2023/12/14 04:35:14;;;;;;;78.80;56.90;;;;;;;3.74;100.00;97822.30;109545;1251;61160;-73
2023/12/14 04:37:41;;;;;;;84.90;59.00;;;;;;;3.76;100.00;97828.71;109566;1251;62765;-73
2023/12/14 04:40:08;;;;;;;86.80;58.50;;;;;;;3.77;100.00;97832.36;109531;1251;58914;-72
2023/12/14 04:42:35;;;;;;;86.40;57.20;;;;;;;3.78;100.00;97836.31;109361;1251;59010;-73
2023/12/14 04:45:02;;;;;;;85.20;59.40;;;;;;;3.80;100.00;97841.69;109506;1251;65682;-73
2023/12/14 04:47:29;;;;;;;76.70;54.60;;;;;;;3.81;100.00;97847.42;109548;1251;59952;-73
2023/12/14 04:49:56;;;;;;;80.30;56.20;;;;;;;3.82;100.00;97852.29;109557;1251;65037;-72
2023/12/14 04:52:22;;;;;;;87.40;57.70;;;;;;;3.82;100.00;97851.89;109511;1251;58984;-73
2023/12/14 04:54:49;;;;;;;85.70;56.20;;;;;;;3.82;100.00;97857.52;109586;1251;59040;-72
2023/12/14 04:57:16;;;;;;;86.50;55.50;;;;;;;3.82;100.00;97864.89;109593;1251;65972;-73
2023/12/14 04:59:42;;;;;;;84.40;54.50;;;;;;;3.84;100.00;97866.73;109586;1251;61063;-73
2023/12/14 05:02:09;;;;;;;84.30;53.90;;;;;;;3.84;100.00;97872.69;109528;1251;65036;-73
2023/12/14 05:04:36;;;;;;;94.30;55.70;;;;;;;3.84;100.00;97872.71;109336;1251;58997;-73
2023/12/14 05:07:02;;;;;;;91.00;53.80;;;;;;;3.84;100.00;97873.05;109584;1251;59187;-73
2023/12/14 05:09:29;;;;;;;93.60;56.60;;;;;;;3.82;100.00;97868.77;109550;1251;67037;-73
2023/12/14 05:11:55;;;;;;;99.60;60.70;;;;;;;3.81;100.00;97867.46;109555;1251;60184;-73
2023/12/14 05:14:22;;;;;;;108.90;60.70;;;;;;;3.80;100.00;97870.09;109533;1251;63976;-73
2023/12/14 05:16:49;;;;;;;108.80;61.00;;;;;;;3.80;100.00;97870.83;109510;1251;58969;-74
2023/12/14 05:19:16;;;;;;;112.00;63.40;;;;;;;3.78;100.00;97873.20;109603;1251;58977;-74
2023/12/14 05:21:42;;;;;;;110.10;62.20;;;;;;;3.77;100.00;97875.20;109570;1251;66994;-73
2023/12/14 05:24:09;;;;;;;113.70;60.60;;;;;;;3.76;100.00;97876.84;109616;1251;60033;-74
2023/12/14 05:26:36;;;;;;;109.70;58.40;;;;;;;3.75;100.00;97880.25;109543;1251;65041;-74
2023/12/14 05:29:02;;;;;;;109.90;59.20;;;;;;;3.74;100.00;97883.97;109571;1251;59094;-74
2023/12/14 05:31:29;;;;;;;117.30;59.60;;;;;;;3.77;100.00;97884.02;109558;1251;59016;-74
2023/12/14 05:33:55;;;;;;;121.70;60.70;;;;;;;3.78;100.00;97885.52;109588;1251;66046;-74
2023/12/14 05:36:22;;;;;;;115.40;61.20;;;;;;;3.78;100.00;97888.84;109563;1251;61162;-74
2023/12/14 05:38:49;;;;;;;113.70;58.30;;;;;;;3.79;100.00;97894.23;109530;1251;65173;-74
2023/12/14 05:41:15;;;;;;;120.50;57.40;;;;;;;3.80;100.00;97897.52;109535;1251;59154;-74
2023/12/14 05:43:42;;;;;;;108.00;52.10;;;;;;;3.81;100.00;97901.71;109284;1251;58975;-74
2023/12/14 05:46:09;;;;;;;111.30;51.00;;;;;;;3.80;100.00;97904.77;109604;1251;66022;-74
2023/12/14 05:48:37;;;;;;;127.30;54.00;;;;;;;3.79;100.00;97906.58;109545;1251;60506;-74
2023/12/14 05:51:04;;;;;;;115.60;57.20;;;;;;;3.76;100.00;97910.73;109551;1251;62826;-74
2023/12/14 05:53:30;;;;;;;115.00;53.70;;;;;;;3.76;100.00;97914.98;109528;1251;58976;-74
2023/12/14 05:55:57;;;;;;;115.40;54.00;;;;;;;3.76;100.00;97919.73;109577;1251;59066;-74
2023/12/14 05:58:24;;;;;;;117.70;51.20;;;;;;;3.76;100.00;97920.94;109572;1251;67002;-74
2023/12/14 06:00:50;;;;;;;124.70;52.50;;;;;;;3.77;100.00;97926.17;109572;1251;61264;-74
2023/12/14 06:03:17;;;;;;;117.90;51.40;;;;;;;3.78;100.00;97928.56;109557;1251;65089;-74
2023/12/14 06:05:46;;;;;;;119.30;55.30;;;;;;;3.78;100.00;97937.15;109171;1255;1002348;-74
2023/12/14 06:08:12;;;;;;;123.40;57.00;;;;;;;3.78;100.00;97942.27;109559;1251;59261;-73
2023/12/14 06:10:39;;;;;;;117.60;56.00;;;;;;;3.78;100.00;97942.07;109587;1251;65981;-74
2023/12/14 06:13:05;;;;;;;126.30;58.10;;;;;;;3.78;100.00;97946.27;109352;1256;60041;-73
2023/12/14 06:15:32;;;;;;;121.70;60.80;;;;;;;3.79;100.00;97948.73;109572;1251;65302;-73
2023/12/14 06:17:59;;;;;;;117.30;59.00;;;;;;;3.79;100.00;97954.84;109531;1251;59707;-73
2023/12/14 06:20:25;;;;;;;121.60;61.50;;;;;;;3.80;100.00;97959.75;109539;1251;59079;-73
2023/12/14 06:22:52;;;;;;;125.20;59.70;;;;;;;3.80;100.00;97960.23;109519;1256;67033;-73
2023/12/14 06:25:19;;;;;;;114.10;54.90;;;;;;;3.80;100.00;97966.73;109542;1251;61264;-74
2023/12/14 06:27:45;;;;;;;101.50;53.40;;;;;;;3.81;100.00;97971.98;109536;1251;63950;-73
2023/12/14 06:30:12;;;;;;;106.10;53.70;;;;;;;3.80;100.00;97977.63;109493;1251;58989;-74
2023/12/14 06:32:39;;;;;;;110.90;53.30;;;;;;;3.79;100.00;97983.30;109539;1251;59061;-74
2023/12/14 06:35:06;;;;;;;105.50;52.60;;;;;;;3.79;100.00;97984.89;109528;1254;66118;-74
2023/12/14 06:37:32;;;;;;;100.20;52.70;;;;;;;3.82;100.00;97989.16;109389;1251;61077;-73
2023/12/14 06:39:59;;;;;;;102.40;52.70;;;;;;;3.83;100.00;97994.34;109530;1251;65087;-74
2023/12/14 06:42:27;;;;;;;97.20;50.10;;;;;;;3.84;100.00;97996.41;109227;1260;59401;-73
2023/12/14 06:44:54;;;;;;;99.10;50.60;;;;;;;3.85;100.00;98000.56;109557;1251;58974;-74
2023/12/14 06:47:21;;;;;;;92.00;48.10;;;;;;;3.87;100.00;98004.52;109557;1251;65655;-73
2023/12/14 06:49:47;;;;;;;78.00;43.70;;;;;;;3.87;100.00;98010.45;109360;1251;61167;-73
2023/12/14 06:52:14;;;;;;;99.90;50.10;;;;;;;3.86;100.00;98009.45;109550;1251;65040;-73
2023/12/14 06:54:41;;;;;;;88.90;45.60;;;;;;;3.85;100.00;98011.64;109507;1251;58941;-73
2023/12/14 06:57:07;;;;;;;93.30;45.70;;;;;;;3.84;100.00;98017.65;109538;1251;59024;-73
2023/12/14 06:59:34;;;;;;;92.00;46.70;;;;;;;3.82;100.00;98020.55;109530;1251;65244;-74
2023/12/14 07:02:01;;;;;;;98.10;46.30;;;;;;;3.82;100.00;98021.28;109573;1251;60057;-73
2023/12/14 07:04:27;;;;;;;90.00;48.10;;;;;;;3.81;100.00;98022.74;109509;1251;65545;-74
2023/12/14 07:06:54;;;;;;;87.60;46.30;;;;;;;3.82;100.00;98023.55;109375;1254;59064;-74
2023/12/14 07:09:20;;;;;;;76.70;42.30;;;;;;;3.83;100.00;98025.44;109552;1251;59117;-73
2023/12/14 07:11:47;;;;;;;77.40;43.20;;;;;;;3.85;100.00;98029.37;109579;1251;67570;-73
2023/12/14 07:14:17;;;;;;;71.40;40.10;;;;;;;3.88;100.00;98032.91;109564;1251;60100;-74
2023/12/14 07:16:44;;;;;;;72.60;42.20;;;;;;;3.89;100.00;98033.34;109277;1251;64051;-73
2023/12/14 07:19:11;;;;;;;70.70;39.00;;;;;;;3.90;100.00;98038.58;109549;1251;58978;-72
2023/12/14 07:21:38;;;;;;;73.70;41.30;;;;;;;3.90;100.00;98043.82;109582;1251;59007;-73
2023/12/14 07:24:05;;;;;;;70.00;39.40;;;;;;;3.90;100.00;98050.15;109563;1251;67101;-73
2023/12/14 07:26:31;;;;;;;69.30;41.60;;;;;;;3.92;100.00;98055.66;109524;1251;61199;-73
2023/12/14 07:28:58;;;;;;;68.10;38.30;;;;;;;3.94;100.00;98055.56;109563;1251;65119;-73
2023/12/14 07:31:25;;;;;;;64.10;38.20;;;;;;;3.98;100.00;98054.51;109533;1251;58998;-73
2023/12/14 07:33:51;;;;;;;75.20;42.60;;;;;;;4.00;100.00;98058.95;109538;1251;58918;-73
2023/12/14 07:36:18;;;;;;;105.80;53.40;;;;;;;4.02;100.00;98063.20;109570;1250;66093;-73
2023/12/14 07:38:44;;;;;;;76.00;41.50;;;;;;;4.05;100.00;98062.88;109577;1251;60248;-73
2023/12/14 07:41:11;;;;;;;80.10;44.10;;;;;;;4.07;100.00;98065.94;109532;1251;64960;-73
2023/12/14 07:43:38;;;;;;;89.30;48.00;;;;;;;4.09;100.00;98069.52;109562;1251;58995;-73
2023/12/14 07:46:04;;;;;;;85.10;44.90;;;;;;;4.09;100.00;98070.75;109576;1251;58915;-74
2023/12/14 07:48:31;;;;;;;80.40;45.10;;;;;;;4.12;100.00;98074.80;109544;1251;66039;-73
2023/12/14 07:50:58;;;;;;;71.90;41.20;;;;;;;4.14;100.00;98079.24;109571;1251;60109;-73
2023/12/14 07:53:24;;;;;;;79.80;46.20;;;;;;;4.16;100.00;98085.46;109531;1251;64144;-73
2023/12/14 07:55:51;;;;;;;71.00;42.20;;;;;;;4.17;100.00;98088.70;109560;1251;58899;-73
2023/12/14 07:58:17;;;;;;;76.40;46.60;;;;;;;4.20;100.00;98091.38;109577;1251;59110;-74
2023/12/14 08:00:44;;;;;;;84.70;47.90;;;;;;;4.23;100.00;98092.67;109570;1251;66005;-73
2023/12/14 08:03:11;;;;;;;68.40;40.50;;;;;;;4.23;100.00;98097.37;109553;1251;60076;-74
2023/12/14 08:05:38;;;;;;;85.80;52.00;;;;;;;4.24;100.00;98102.44;109566;1251;64179;-73
2023/12/14 08:08:04;;;;;;;80.70;45.90;;;;;;;4.27;100.00;98103.33;109550;1251;59055;-74
2023/12/14 08:10:31;;;;;;;74.40;43.30;;;;;;;4.29;100.00;98104.46;109550;1251;58974;-74
2023/12/14 08:12:58;;;;;;;66.90;42.10;;;;;;;4.30;100.00;98107.58;109573;1251;66935;-73
2023/12/14 08:15:25;;;;;;;74.50;41.30;;;;;;;4.29;100.00;98114.28;109570;1251;61271;-73
2023/12/14 08:17:51;;;;;;;56.50;34.70;;;;;;;4.29;100.00;98119.19;109543;1251;65286;-73
2023/12/14 08:20:18;;;;;;;58.50;39.00;;;;;;;4.29;100.00;98123.27;109552;1251;58965;-73
2023/12/14 08:22:44;;;;;;;58.90;37.10;;;;;;;4.29;100.00;98131.20;109560;1251;59304;-73
2023/12/14 08:25:15;;;;;;;61.30;41.80;;;;;;;4.29;100.00;98134.89;109585;1251;67031;-73
2023/12/14 08:27:43;;;;;;;59.60;40.40;;;;;;;4.31;100.00;98141.25;109493;1251;61248;-73
2023/12/14 08:30:11;;;;;;;58.00;37.90;;;;;;;4.33;100.00;98142.89;109543;1251;65116;-72
2023/12/14 08:32:37;;;;;;;60.50;39.90;;;;;;;4.34;100.00;98148.10;109536;1251;58880;-73
2023/12/14 08:35:04;;;;;;;59.30;38.70;;;;;;;4.36;100.00;98151.00;109552;1251;59053;-73
2023/12/14 08:37:31;;;;;;;57.70;37.50;;;;;;;4.38;100.00;98155.30;109565;1251;66034;-73
2023/12/14 08:39:58;;;;;;;54.30;36.30;;;;;;;4.39;100.00;98160.52;109601;1251;61379;-74
2023/12/14 08:42:24;;;;;;;55.40;37.80;;;;;;;4.37;100.00;98165.52;109486;1251;65083;-73
2023/12/14 08:44:51;;;;;;;52.20;36.20;;;;;;;4.36;100.00;98168.23;109518;1251;58917;-74
2023/12/14 08:47:19;;;;;;;47.50;32.00;;;;;;;4.33;100.00;98173.29;109569;1251;58965;-73
2023/12/14 08:49:45;;;;;;;50.50;32.20;;;;;;;4.31;100.00;98177.48;109366;1251;66096;-73
2023/12/14 08:52:14;;;;;;;50.20;33.00;;;;;;;4.29;100.00;98181.61;109563;1251;61059;-74
2023/12/14 08:54:43;;;;;;;47.20;32.50;;;;;;;4.26;100.00;98185.67;109515;1251;65286;-74
2023/12/14 08:57:10;;;;;;;50.90;33.30;;;;;;;4.23;100.00;98186.88;109552;1251;59048;-74
2023/12/14 08:59:37;;;;;;;53.30;35.40;;;;;;;4.24;100.00;98192.13;109548;1251;59401;-74
2023/12/14 09:02:04;;;;;;;57.70;36.90;;;;;;;4.23;100.00;98194.98;109543;1251;65983;-74
2023/12/14 09:04:31;;;;;;;54.90;36.60;;;;;;;4.23;100.00;98196.20;109550;1251;60373;-74
2023/12/14 09:06:58;;;;;;;53.70;33.80;;;;;;;4.24;100.00;98201.43;109531;1251;64233;-73
2023/12/14 09:09:24;;;;;;;56.70;36.10;;;;;;;4.25;100.00;98203.66;109529;1251;58993;-73
2023/12/14 09:11:51;;;;;;;60.50;36.90;;;;;;;4.25;100.00;98204.18;109557;1251;59344;-73
2023/12/14 09:14:18;;;;;;;49.80;34.40;;;;;;;4.26;100.00;98208.68;109556;1251;67055;-73
2023/12/14 09:16:44;;;;;;;49.80;34.50;;;;;;;4.28;100.00;98210.15;109581;1251;61170;-74
2023/12/14 09:19:11;;;;;;;50.60;33.50;;;;;;;4.31;100.00;98214.77;109544;1251;65095;-73
2023/12/14 09:21:37;;;;;;;49.60;32.10;;;;;;;4.33;100.00;98217.30;109253;1251;59054;-74
2023/12/14 09:24:04;;;;;;;47.30;32.70;;;;;;;4.35;100.00;98219.66;109590;1251;58919;-74
2023/12/14 09:26:31;;;;;;;45.90;30.90;;;;;;;4.39;100.00;98222.39;109567;1250;66094;-73
2023/12/14 09:28:57;;;;;;;43.90;30.20;;;;;;;4.44;100.00;98224.94;109585;1251;61048;-74
2023/12/14 09:31:24;;;;;;;42.50;29.60;;;;;;;4.46;100.00;98229.23;109609;1251;63992;-73
2023/12/14 09:33:52;;;;;;;43.70;30.20;;;;;;;4.49;100.00;98235.09;109568;1251;59045;-74
2023/12/14 09:36:18;;;;;;;47.30;32.90;;;;;;;4.52;100.00;98236.14;109580;1251;59043;-73
2023/12/14 09:38:45;;;;;;;46.30;30.00;;;;;;;4.57;100.00;98234.46;109592;1251;67023;-73
2023/12/14 09:41:12;;;;;;;45.00;31.50;;;;;;;4.62;100.00;98233.98;109618;1250;61481;-74
2023/12/14 09:43:40;;;;;;;44.70;32.70;;;;;;;4.65;100.00;98236.98;109565;1251;64007;-74
2023/12/14 09:46:07;;;;;;;46.80;34.10;;;;;;;4.68;100.00;98238.08;109351;1251;59558;-73
2023/12/14 09:48:34;;;;;;;47.50;33.30;;;;;;;4.71;100.00;98238.63;109574;1251;59062;-74
2023/12/14 09:51:00;;;;;;;45.00;32.40;;;;;;;4.73;100.00;98238.85;109551;1251;66154;-74
2023/12/14 09:53:27;;;;;;;50.40;36.10;;;;;;;4.74;100.00;98237.00;109578;1251;61057;-73
2023/12/14 09:55:54;;;;;;;48.70;37.30;;;;;;;4.76;100.00;98239.18;109507;1251;64040;-74
2023/12/14 09:58:20;;;;;;;48.40;34.10;;;;;;;4.78;100.00;98238.38;109555;1251;58928;-73
2023/12/14 10:00:47;;;;;;;46.60;34.00;;;;;;;4.78;100.00;98236.96;109577;1251;59215;-74
2023/12/14 10:03:26;;;;;;;53.10;38.80;;;;;;;4.79;100.00;98238.32;109556;1251;67013;-74
2023/12/14 10:05:54;;;;;;;50.70;38.10;;;;;;;4.82;100.00;98240.63;109580;1251;60077;-74
2023/12/14 10:08:22;;;;;;;49.50;37.40;;;;;;;4.83;100.00;98244.59;109604;1251;64051;-74
2023/12/14 10:10:52;;;;;;;44.10;32.70;;;;;;;4.82;100.00;98245.04;109552;1251;59332;-73
2023/12/14 10:13:20;;;;;;;44.50;34.10;;;;;;;4.81;100.00;98249.29;109586;1251;59029;-74
2023/12/14 10:15:48;;;;;;;48.10;35.20;;;;;;;4.85;100.00;98252.08;109543;1251;66161;-74
2023/12/14 10:18:24;;;;;;;47.20;32.80;;;;;;;4.89;100.00;98253.25;109609;1250;60300;-74
2023/12/14 10:20:51;;;;;;;42.50;31.20;;;;;;;4.90;100.00;98258.49;109570;1251;64008;-74
2023/12/14 10:23:18;;;;;;;50.00;32.00;;;;;;;4.88;100.00;98266.20;109545;1251;59025;-74
2023/12/14 10:25:46;;;;;;;45.60;32.80;;;;;;;4.86;100.00;98268.22;109600;1251;58998;-73
2023/12/14 10:28:13;;;;;;;45.90;32.60;;;;;;;4.87;100.00;98269.59;109527;1251;66038;-74
2023/12/14 10:30:41;;;;;;;44.30;30.60;;;;;;;4.88;100.00;98271.81;109602;1250;60292;-74
2023/12/14 10:33:08;;;;;;;43.90;32.60;;;;;;;4.90;100.00;98276.10;109564;1251;64029;-73
2023/12/14 10:35:35;;;;;;;41.70;31.50;;;;;;;4.92;100.00;98277.20;109581;1251;58968;-74
2023/12/14 10:38:04;;;;;;;44.20;33.70;;;;;;;4.93;100.00;98271.90;109600;1251;59110;-73
2023/12/14 10:40:40;;;;;;;40.10;31.70;;;;;;;4.94;100.00;98276.07;109577;1251;67240;-73
2023/12/14 10:43:06;;;;;;;43.40;32.20;;;;;;;4.94;100.00;98278.69;109569;1251;60081;-73
2023/12/14 10:45:33;;;;;;;39.90;30.30;;;;;;;4.96;100.00;98283.34;109386;1251;64117;-73
2023/12/14 10:48:01;;;;;;;43.00;30.80;;;;;;;4.98;100.00;98283.19;109569;1251;59354;-73
2023/12/14 10:50:29;;;;;;;42.60;31.00;;;;;;;5.01;100.00;98283.23;109573;1251;59020;-73
2023/12/14 10:52:58;;;;;;;38.20;28.90;;;;;;;5.01;100.00;98293.77;109614;1251;66778;-73
2023/12/14 10:55:36;;;;;;;35.20;27.10;;;;;;;5.00;100.00;98295.96;109583;1251;61028;-72
2023/12/14 10:58:03;;;;;;;40.00;28.10;;;;;;;4.98;100.00;98294.29;109561;1251;64082;-74
2023/12/14 11:00:33;;;;;;;36.50;27.50;;;;;;;5.01;100.00;98297.48;109557;1251;58978;-73
2023/12/14 11:03:00;;;;;;;37.70;28.70;;;;;;;5.03;100.00;98300.69;109387;1251;59422;-74
2023/12/14 11:05:30;;;;;;;36.70;29.30;;;;;;;5.05;100.00;98300.77;109573;1251;66140;-73